Bango, Nevada Weather observations

Data are for 10 minute period ending at time listed.
 Day   Time    Ave.   Ave.  Ave.  Vector   Max.   Stn.    Total    Solar   Ave.  
  of    of     Air    Rel.  Wind   Wind    Wind   Baro.  Precip.   Rad.    Soil  
Year   Day     Temp.  Hum.  Speed  Dir.    Gust   Pres.                    Temp. 
2017   (PST)    F      %     mph   deg.    mph     mb.     in.     W/m2     F    
--------------------------------------------------------------------------------- 
  55    0:30   24.6    78    3.0   213      5.1   876.4    0.00       0     4.4  
  55    0:40   24.7    77    2.3   245      5.1   876.4    0.00       0     4.4  
  55    0:50   24.9    72    2.5   275      4.2   876.4    0.00       0     4.4  
  55    1:00   24.2    76    3.6   256      5.1   876.4    0.00       0     4.3  
  55    1:10   22.9    81    5.5   250      6.9   876.4    0.00       0     4.3  
  55    1:20   22.2    82    3.2   289      4.2   876.5    0.00       0     4.3  
  55    1:30   23.0    77    3.1   322      4.2   876.5    0.00       0     4.2  
  55    1:40   23.5    74    3.6   322      6.0   876.5    0.00       0     4.2  
  55    1:50   23.5    73    3.9   320      5.1   876.5    0.00       0     4.2  
  55    2:00   23.6    71    2.8   328      5.1   876.7    0.00       0     4.1  
  55    2:10   23.3    75    3.6   229      5.1   876.8    0.00       0     4.1  
  55    2:20   23.7    71    2.5   266      4.2   876.8    0.00       0     4.1  
  55    2:30   22.5    76    4.2   238      6.9   876.8    0.00       0     4.0  
  55    2:40   22.9    74    4.1   262      6.0   876.8    0.00       0     4.0  
  55    2:50   22.7    73    5.1   245      6.9   876.8    0.00       0     4.0  
  55    3:00   21.2    78    5.8   249      7.8   876.7    0.00       0     3.9  
  55    3:10   20.5    81    5.1   257      6.9   876.7    0.00       0     3.9  
  55    3:20   20.4    82    4.1   248      6.0   876.8    0.00       0     3.9  
  55    3:30   20.3    82    4.6   253      6.0   876.9    0.00       0     3.8  
  55    3:40   20.5    81    2.9   270      4.2   876.9    0.00       0     3.8  
  55    3:50   21.3    78    2.7   298      3.3   876.9    0.00       0     3.8  
  55    4:00   21.0    79    2.9   275      3.3   877.0    0.00       0     3.8  
  55    4:10   20.1    81    4.5   265      6.9   877.1    0.00       0     3.7  
  55    4:20   19.8    83    5.7   252      7.8   877.0    0.00       0     3.7  
  55    4:30   19.7    83    6.6   262      8.7   877.0    0.00       0     3.6  
  55    4:40   21.5    78    8.5   267     10.5   876.9    0.00       0     3.6  
  55    4:50   24.4    69    9.8   270     11.4   876.9    0.00       0     3.6  
  55    5:00   24.0    70    9.7   270     10.5   877.0    0.00       0     3.6  
  55    5:10   23.0    73    8.3   270      9.6   877.0    0.00       0     3.5  
  55    5:20   22.5    75    8.2   271      9.6   876.9    0.00       0     3.5  
  55    5:30   22.5    75    7.1   274      8.7   877.0    0.00       0     3.5  
  55    5:40   22.4    75    7.8   265      9.6   877.0    0.00       0     3.4  
  55    5:50   21.8    76    8.2   264      9.6   877.0    0.00       0     3.4  
  55    6:00   21.0    79    6.0   239      7.8   877.0    0.00       0     3.4  
  55    6:10   21.1    79    6.9   241      7.8   877.1    0.00       0     3.4  
  55    6:20   21.0    79    8.0   229     10.5   877.2    0.00       0     3.3  
  55    6:30   21.1    78    7.4   232      9.6   877.2    0.00       2     3.3  
  55    6:40   20.8    77    8.3   234      9.6   877.1    0.00       5     3.3  
  55    6:50   21.1    76    8.5   235      9.6   877.1    0.00      20     3.2  
  55    7:00   21.5    75    8.3   236      9.6   877.2    0.00      44     3.2  
  55    7:10   21.4    78    6.9   234      8.7   877.2    0.00      76     3.2  
  55    7:20   22.1    77    6.0   235      6.9   877.3    0.00     116     3.2  
  55    7:30   23.6    74    5.8   249      6.9   877.3    0.00     151     3.2  
  55    7:40   25.2    70    5.0   236      6.9   877.4    0.00     182     3.1  
  55    7:50   26.2    69    3.6   187      5.1   877.3    0.00     216     3.1  
  55    8:00   27.9    64    0.9   228      2.4   877.2    0.00     251     3.1  
  55    8:10   28.6    60    0.6   167      1.5   877.2    0.00     286     3.1  
  55    8:20   29.4    58    0.6   246      0.6   877.2    0.00     306     3.1  
  55    8:30   30.3    54    1.0   264      3.3   877.3    0.00     368     3.1  
  55    8:40   29.9    55    3.4   160      5.1   877.5    0.00     398     3.0  
  55    8:50   29.7    54    3.6   147      5.1   877.6    0.00     424     3.0  
  55    9:00   31.4    51    3.1   150      6.0   877.6    0.00     400     3.0  
  55    9:10   30.1    57    5.3   185      8.7   877.6    0.00     466     3.0  
  55    9:20   30.2    58    4.2   211      6.9   877.7    0.00     509     3.0  
  55    9:30   30.5    55    3.9   215      6.0   877.7    0.00     536     3.0  
  55    9:40   30.8    52    5.0   193      7.8   877.7    0.00     547     2.9  
  55    9:50   30.9    52    5.4   201      9.6   877.9    0.00     590     2.9  
  55   10:00   31.2    54    7.1   202     12.3   877.9    0.00     613     2.9  
  55   10:10   31.2    54    6.4   188     10.5   877.9    0.00     642     2.9  
  55   10:20   31.7    51    8.7   211     12.3   878.0    0.00     678     2.9  
  55   10:30   32.1    50    8.3   190     13.2   877.9    0.00     700     2.9  
  55   10:40   32.0    48    7.5   188     12.3   877.8    0.00     640     2.8  
  55   10:50   32.4    51    6.5   182     11.4   877.9    0.00     699     2.8  
  55   11:00   32.5    53    7.3   191     12.3   877.9    0.00     683     2.8  
  55   11:10   32.8    52    7.7   174     12.3   877.9    0.00     732     2.8  
  55   11:20   33.2    51    6.5   167     10.5   877.8    0.00     827     2.8  
  55   11:30   34.1    49    4.4   160      9.6   877.7    0.00     700     2.8  
  55   11:40   33.6    48    5.1   178     10.5   877.6    0.00     669     2.8  
  55   11:50   35.3    46    4.6   178      7.8   877.6    0.00     785     2.8  
  55   12:00   35.1    42    4.4   199      7.8   877.5    0.00     799     2.9  
  55   12:10   35.6    38    5.2   189      9.6   877.4    0.00     813     2.9  
  55   12:20   35.4    37    4.3   168      7.8   877.3    0.00     891     2.9  
  55   12:30   36.3    38    3.5   224      8.7   877.2    0.00     805     3.0  
  55   12:40   36.2    42    6.7   153     11.4   877.1    0.00     827     3.1  
  55   12:50   35.9    41    5.9   205     10.5   877.0    0.00     656     3.2  
  55   13:00   35.6    42    6.2   162     11.4   876.9    0.00     619     3.2  
  55   13:10   36.1    37    4.1   228      7.8   876.8    0.00     638     3.3  
  55   13:20   36.0    40    4.7   238      8.7   876.7    0.00     332     3.4  
  55   13:30   35.1    41    4.9   329     11.4   876.6    0.00     204     3.6  
  55   13:40   35.2    42    5.8   310      9.6   876.5    0.00     204     3.7  
  55   13:50   35.0    43    6.1   330      8.7   876.5    0.00     237     3.8  
  55   14:00   34.9    44    6.6   303     10.5   876.5    0.00     196     3.9  
  55   14:10   35.0    45    6.1   262      8.7   876.5    0.00     223     4.1  
  55   14:20   34.8    43    4.8   267      9.6   876.5    0.00     247     4.2  
  55   14:30   35.3    42    3.8     2      8.7   876.4    0.00     389     4.3  
  55   14:40   34.9    47    5.2   334     11.4   876.3    0.00     268     4.4  
  55   14:50   35.7    44    4.3   246      7.8   876.2    0.00     247     4.6  
  55   15:00   36.2    42    4.2   242      6.9   876.0    0.00     524     4.7  
  55   15:10   37.7    40    4.6   218     11.4   875.9    0.00     573     4.8  
  55   15:20   37.2    39    6.2   211      9.6   875.8    0.00     398     4.9  
  55   15:30   37.0    40    6.2   178     10.5   875.7    0.00     452     4.9  
  55   15:40   36.8    40    6.9   169     11.4   875.7    0.00     344     5.0  
  55   15:50   36.5    41    8.3   176     12.3   875.7    0.00     221     5.1  
  55   16:00   36.2    41    8.3   165     10.5   875.7    0.00     223     5.2  
  55   16:10   36.4    41    7.1   150     11.4   875.6    0.00     218     5.2  
  55   16:20   36.4    41    8.4   162     11.4   875.5    0.00     213     5.3  
  55   16:30   36.2    41    7.5   187     12.3   875.6    0.00     114     5.4  
  55   16:40   35.6    41    6.6   200     12.3   875.6    0.00      61     5.4  
  55   16:50   35.5    42    4.9   193      6.9   875.7    0.00      60     5.5  
  55   17:00   35.4    45    5.0   199      6.9   875.7    0.00      36     5.5  
  55   17:10   35.1    46    4.0   192      5.1   875.7    0.00      23     5.6  
  55   17:20   34.7    48    3.7   134      6.0   875.7    0.00      16     5.6  
  55   17:30   34.1    51    2.8    71      5.1   875.7    0.00      12     5.7  
  55   17:40   33.8    48    2.7    15      4.2   875.7    0.00       6     5.7  
  55   17:50   33.5    50    3.3    34      5.1   875.7    0.00       3     5.7  
  55   18:00   32.5    57    4.5    46      5.1   875.8    0.00       1     5.8  
  55   18:10   32.1    56    4.8    36      6.0   875.8    0.00       0     5.8  
  55   18:20   32.6    53    5.1    33      6.9   875.7    0.00       0     5.8  
  55   18:30   32.6    54    5.1    41      6.9   875.7    0.00       0     5.8  
  55   18:40   32.2    57    4.5    53      6.0   875.7    0.00       0     5.7  
  55   18:50   31.5    61    5.8    50      6.9   875.7    0.00       0     5.7  
  55   19:00   31.0    64    6.4    47      6.9   875.7    0.00       0     5.7  
  55   19:10   31.1    61    6.5    55      7.8   875.6    0.00       0     5.7  
  55   19:20   31.3    61    4.3    75      7.8   875.6    0.00       0     5.7  
  55   19:30   30.9    63    4.2    59      5.1   875.6    0.00       0     5.7  
  55   19:40   30.8    64    5.3    52      6.0   875.6    0.00       0     5.6  
  55   19:50   30.7    65    4.4    52      6.0   875.6    0.00       0     5.6  
  55   20:00   30.6    70    2.3   116      3.3   875.8    0.00       0     5.6  
  55   20:10   30.3    71    1.1   155      3.3   875.8    0.00       0     5.5  
  55   20:20   30.3    69    2.1   136      3.3   875.9    0.00       0     5.5  
  55   20:30   30.4    67    2.3   119      3.3   876.0    0.00       0     5.5  
  55   20:40   30.3    72    1.7   153      2.4   876.1    0.00       0     5.4  
  55   20:50   30.2    72    1.0   104      2.4   876.1    0.00       0     5.4  
  55   21:00   29.8    75    3.1   266      4.2   876.2    0.00       0     5.3  
  55   21:10   30.0    68    1.6   324      2.4   876.2    0.00       0     5.3  
  55   21:20   30.8    62    2.4    23      3.3   876.2    0.00       0     5.2  
  55   21:30   30.9    62    2.3    22      3.3   876.2    0.00       0     5.2  
  55   21:40   30.6    67    1.3     6      2.4   876.1    0.00       0     5.2  
  55   21:50   30.5    65    2.7   322      3.3   876.1    0.00       0     5.1  
  55   22:00   30.6    63    2.0     2      2.4   876.2    0.00       0     5.1  
  55   22:10   30.3    66    3.7   346      5.1   876.1    0.00       0     5.0  
  55   22:20   29.4    70    4.3     1      5.1   876.1    0.00       0     5.0  
  55   22:30   29.2    70    3.2   343      5.1   876.2    0.00       0     5.0  
  55   22:40   29.4    69    2.2   306      3.3   876.2    0.00       0     4.9  
  55   22:50   28.5    76    3.0   294      4.2   876.1    0.00       0     4.9  
  55   23:00   28.3    77    4.6   322      6.0   876.1    0.00       0     4.8  
  55   23:10   28.6    75    4.1   325      5.1   876.0    0.00       0     4.8  
  55   23:20   28.4    77    4.2   324      6.0   876.0    0.00       0     4.7  
  55   23:30   27.8    79    5.1   346      6.9   876.1    0.00       0     4.7  
  55   23:40   27.7    80    5.3   335      6.0   876.1    0.00       0     4.7  
  55   23:50   27.8    78    4.9   342      6.0   876.0    0.00       0     4.6  
  56    0:00   28.1    75    3.3     7      5.1   875.9    0.00       0     4.6  
  56    0:10   28.7    73    2.9   348      4.2   875.9    0.00       0     4.6  
  56    0:20   28.3    75    2.6   337      4.2   875.9    0.00       0     4.5  

Return to Garden Spring, Nevada graphs page.


Western Regional Climate Center,wrcc@dri.edu